createdAt,value
2023-04-09T00:03:19.154Z,100571.56
2023-04-09T00:07:22.515Z,100569.84
2023-04-09T00:11:29.768Z,100564.59
2023-04-09T00:15:32.949Z,100554.09
2023-04-09T00:19:37.312Z,100565.53
2023-04-09T00:23:40.011Z,100552.50
2023-04-09T00:27:45.300Z,100550.88
2023-04-09T00:31:48.237Z,100550.97
2023-04-09T00:35:54.840Z,100549.16
2023-04-09T00:39:57.743Z,100538.75
2023-04-09T00:44:01.176Z,100535.25
2023-04-09T00:48:04.568Z,100537.94
2023-04-09T00:52:12.539Z,100544.91
2023-04-09T00:56:18.862Z,100532.84
2023-04-09T01:00:21.878Z,100531.91
2023-04-09T01:04:25.993Z,100532.91
2023-04-09T01:08:38.466Z,100535.53
2023-04-09T01:12:51.270Z,100527.72
2023-04-09T01:17:01.812Z,100539.06
2023-04-09T01:21:08.563Z,100529.50
2023-04-09T01:25:30.219Z,100532.97
2023-04-09T01:29:43.648Z,100537.22
2023-04-09T01:33:47.306Z,100528.50
2023-04-09T01:37:51.239Z,100531.97
2023-04-09T01:41:58.195Z,100535.47
2023-04-09T01:46:03.797Z,100533.75
2023-04-09T01:50:07.966Z,100539.94
2023-04-09T01:54:11.330Z,100541.75
2023-04-09T01:58:14.984Z,100547.00
2023-04-09T02:02:24.358Z,100534.88
2023-04-09T02:06:36.548Z,100550.53
2023-04-09T02:10:42.187Z,100543.59
2023-04-09T02:14:48.104Z,100546.22
2023-04-09T02:18:57.391Z,100553.31
2023-04-09T02:23:00.671Z,100561.19
2023-04-09T02:27:04.246Z,100563.09
2023-04-09T02:31:07.362Z,100563.88
2023-04-09T02:35:11.745Z,100563.09
2023-04-09T02:39:14.930Z,100558.88
2023-04-09T02:43:18.433Z,100551.28
2023-04-09T02:47:26.966Z,100547.97
2023-04-09T02:51:31.770Z,100547.19
2023-04-09T02:55:34.714Z,100546.41
2023-04-09T02:59:39.475Z,100535.84
2023-04-09T03:03:43.272Z,100544.59
2023-04-09T03:07:48.385Z,100541.16
2023-04-09T03:11:51.608Z,100535.97
2023-04-09T03:15:55.045Z,100543.91
2023-04-09T03:19:58.425Z,100543.03
2023-04-09T03:24:04.239Z,100552.78
2023-04-09T03:28:07.298Z,100551.00
2023-04-09T03:32:10.399Z,100537.94
2023-04-09T03:36:13.486Z,100532.84
2023-04-09T03:40:18.021Z,100533.81
2023-04-09T03:44:21.051Z,100535.72
2023-04-09T03:48:23.870Z,100536.63
2023-04-09T03:52:26.727Z,100536.75
2023-04-09T03:56:31.430Z,100534.28
2023-04-09T04:00:34.440Z,100529.16
2023-04-09T04:04:37.338Z,100523.19
2023-04-09T04:08:40.308Z,100533.69
2023-04-09T04:12:44.673Z,100527.50
2023-04-09T04:16:47.685Z,100529.22
2023-04-09T04:20:51.220Z,100539.38
2023-04-09T04:24:54.398Z,100543.34
2023-04-09T04:29:01.224Z,100543.59
2023-04-09T04:33:04.373Z,100549.81
2023-04-09T04:37:07.208Z,100550.16
2023-04-09T04:41:12.085Z,100558.63
2023-04-09T04:45:16.837Z,100562.75
2023-04-09T04:49:19.807Z,100563.28
2023-04-09T04:53:26.613Z,100570.03
2023-04-09T04:57:33.098Z,100566.28
2023-04-09T05:01:37.537Z,100565.97
2023-04-09T05:05:40.865Z,100569.09
2023-04-09T05:09:44.596Z,100569.59
2023-04-09T05:13:47.721Z,100568.38
2023-04-09T05:17:52.146Z,100565.66
2023-04-09T05:21:54.995Z,100572.53
2023-04-09T05:25:57.942Z,100566.97
2023-04-09T05:30:01.189Z,100569.19
2023-04-09T05:34:06.494Z,100572.13
2023-04-09T05:38:09.499Z,100569.97
2023-04-09T05:42:12.503Z,100570.53
2023-04-09T05:46:18.588Z,100573.44
2023-04-09T05:50:28.260Z,100571.00
2023-04-09T05:54:31.570Z,100574.75
2023-04-09T05:58:37.578Z,100577.16
2023-04-09T06:02:42.902Z,100564.31
2023-04-09T06:06:47.293Z,100578.50
2023-04-09T06:10:50.249Z,100575.59
2023-04-09T06:14:53.405Z,100579.81
2023-04-09T06:18:57.205Z,100580.38
2023-04-09T06:23:01.398Z,100584.44
2023-04-09T06:27:04.627Z,100588.72
2023-04-09T06:31:08.865Z,100591.31
2023-04-09T06:35:11.954Z,100586.94
2023-04-09T06:39:16.545Z,100585.34
2023-04-09T06:43:24.376Z,100586.03
2023-04-09T06:47:27.294Z,100583.72
2023-04-09T06:51:32.195Z,100594.34
2023-04-09T06:55:36.184Z,100588.56
2023-04-09T06:59:39.005Z,100594.94
2023-04-09T07:03:41.872Z,100592.72
2023-04-09T07:07:45.342Z,100600.72
2023-04-09T07:11:49.863Z,100604.34
2023-04-09T07:16:00.936Z,100597.22
2023-04-09T07:20:04.264Z,100603.06
2023-04-09T07:24:08.005Z,100619.84
2023-04-09T07:28:12.770Z,100617.53
2023-04-09T07:32:16.138Z,100602.16
2023-04-09T07:36:21.560Z,100609.94
2023-04-09T07:40:24.328Z,100615.59
2023-04-09T07:44:28.441Z,100621.75
2023-04-09T07:48:32.000Z,100619.38
2023-04-09T07:52:34.736Z,100622.19
2023-04-09T07:56:37.238Z,100624.91
2023-04-09T08:00:41.628Z,100620.81
2023-04-09T08:04:45.964Z,100631.25
2023-04-09T08:08:52.517Z,100619.91
2023-04-09T08:12:55.923Z,100622.88
2023-04-09T08:17:01.689Z,100623.81
2023-04-09T08:21:06.763Z,100630.06
2023-04-09T08:25:10.270Z,100623.34
2023-04-09T08:29:14.633Z,100615.91
2023-04-09T08:33:18.236Z,100620.28
2023-04-09T08:37:21.422Z,100625.97
2023-04-09T08:41:25.870Z,100627.38
2023-04-09T08:45:29.224Z,100633.06
2023-04-09T08:49:35.743Z,100628.56
2023-04-09T08:53:40.166Z,100623.59
2023-04-09T08:57:43.835Z,100625.66
2023-04-09T09:01:48.179Z,100624.47
2023-04-09T09:05:52.850Z,100624.91
2023-04-09T09:09:58.226Z,100621.06
2023-04-09T09:14:06.259Z,100629.09
2023-04-09T09:18:09.385Z,100623.94
2023-04-09T09:22:16.393Z,100628.28
2023-04-09T09:26:23.216Z,100627.50
2023-04-09T09:30:27.605Z,100632.34
2023-04-09T09:34:30.640Z,100636.69
2023-04-09T09:38:34.691Z,100648.19
2023-04-09T09:42:37.807Z,100643.47
2023-04-09T09:46:42.741Z,100639.19
2023-04-09T09:50:49.136Z,100641.31
2023-04-09T09:54:54.162Z,100631.94
2023-04-09T09:59:05.232Z,100638.72
2023-04-09T10:03:16.871Z,100639.28
2023-04-09T10:07:22.484Z,100640.22
2023-04-09T10:11:27.586Z,100641.16
2023-04-09T10:15:31.313Z,100633.94
2023-04-09T10:19:44.668Z,100636.09
2023-04-09T10:23:51.010Z,100633.84
2023-04-09T10:28:02.945Z,100631.06
2023-04-09T10:32:07.267Z,100625.28
2023-04-09T10:36:12.509Z,100629.84
2023-04-09T10:40:20.741Z,100619.09
2023-04-09T10:44:28.849Z,100625.13
2023-04-09T10:48:34.611Z,100614.66
2023-04-09T10:52:42.110Z,100609.31
2023-04-09T10:57:13.874Z,100617.38
2023-04-09T11:01:24.410Z,100615.34
2023-04-09T11:05:32.747Z,100621.63
2023-04-09T11:09:36.661Z,100618.06
2023-04-09T11:13:42.226Z,100617.84
2023-04-09T11:17:47.197Z,100628.75
2023-04-09T11:21:51.626Z,100608.91
2023-04-09T11:25:55.426Z,100614.03
2023-04-09T11:29:58.369Z,100617.63
2023-04-09T11:34:05.631Z,100613.16
2023-04-09T11:38:09.782Z,100612.06
2023-04-09T11:42:15.571Z,100616.44
2023-04-09T11:46:20.659Z,100612.31
2023-04-09T11:50:26.996Z,100604.16
2023-04-09T11:54:33.797Z,100610.94
2023-04-09T11:58:37.125Z,100608.38
2023-04-09T12:02:43.526Z,100611.63
2023-04-09T12:06:48.515Z,100615.56
2023-04-09T12:10:53.391Z,100622.38
2023-04-09T12:14:59.020Z,100613.03
2023-04-09T12:19:02.854Z,100614.16
2023-04-09T12:23:10.803Z,100612.69
2023-04-09T12:27:13.372Z,100610.25
2023-04-09T12:31:17.348Z,100610.97
2023-04-09T12:35:20.384Z,100610.63
2023-04-09T12:39:24.794Z,100614.66
2023-04-09T12:43:28.085Z,100615.00
2023-04-09T12:47:31.025Z,100606.91
2023-04-09T12:51:34.413Z,100598.66
2023-04-09T12:55:43.087Z,100604.56
2023-04-09T12:59:46.130Z,100596.81
2023-04-09T13:03:49.419Z,100592.59
2023-04-09T13:07:52.855Z,100582.38
2023-04-09T13:11:59.524Z,100572.56
2023-04-09T13:16:02.552Z,100575.66
2023-04-09T13:20:07.101Z,100575.31
2023-04-09T13:24:10.077Z,100580.47
2023-04-09T13:28:15.822Z,100572.09
2023-04-09T13:32:21.221Z,100555.19
2023-04-09T13:36:24.606Z,100551.66
2023-04-09T13:40:27.744Z,100553.34
2023-04-09T13:44:33.626Z,100544.25
2023-04-09T13:48:36.580Z,100549.09
2023-04-09T13:52:39.683Z,100555.75
2023-04-09T13:56:43.004Z,100551.78
2023-04-09T14:00:47.512Z,100552.03
2023-04-09T14:04:52.806Z,100551.53
2023-04-09T14:08:56.008Z,100554.78
2023-04-09T14:12:58.850Z,100554.94
2023-04-09T14:17:03.663Z,100553.41
2023-04-09T14:21:09.852Z,100554.56
2023-04-09T14:25:13.767Z,100542.59
2023-04-09T14:29:17.438Z,100545.22
2023-04-09T14:33:25.120Z,100542.84
2023-04-09T14:37:28.476Z,100537.81
2023-04-09T14:41:34.334Z,100540.59
2023-04-09T14:45:37.356Z,100541.66
2023-04-09T14:49:41.851Z,100533.59
2023-04-09T14:53:47.184Z,100536.13
2023-04-09T14:57:50.243Z,100531.84
2023-04-09T15:01:53.947Z,100534.53
2023-04-09T15:05:58.589Z,100533.47
2023-04-09T15:10:04.953Z,100531.09
2023-04-09T15:14:10.080Z,100533.81
2023-04-09T15:18:12.824Z,100538.94
2023-04-09T15:22:16.660Z,100534.31
2023-04-09T15:26:19.691Z,100536.75
2023-04-09T15:30:22.614Z,100545.47
2023-04-09T15:34:26.380Z,100541.75
2023-04-09T15:38:32.782Z,100540.69
2023-04-09T15:42:38.457Z,100537.94
2023-04-09T15:46:41.353Z,100539.31
2023-04-09T15:50:46.636Z,100536.25
2023-04-09T15:54:54.205Z,100535.63
2023-04-09T15:58:57.760Z,100543.91
2023-04-09T16:03:00.697Z,100538.06
2023-04-09T16:07:04.746Z,100536.69
2023-04-09T16:11:09.850Z,100536.47
2023-04-09T16:15:14.418Z,100538.47
2023-04-09T16:19:18.382Z,100541.56
2023-04-09T16:23:24.160Z,100545.16
2023-04-09T16:27:28.762Z,100547.16
2023-04-09T16:31:34.711Z,100549.81
2023-04-09T16:35:40.723Z,100544.50
2023-04-09T16:39:45.425Z,100549.78
2023-04-09T16:43:56.550Z,100552.47
2023-04-09T16:47:59.662Z,100551.59
2023-04-09T16:52:02.993Z,100567.59
2023-04-09T16:56:08.618Z,100568.50
2023-04-09T17:00:17.601Z,100562.41
2023-04-09T17:04:20.474Z,100562.72
2023-04-09T17:08:24.590Z,100566.13
2023-04-09T17:12:28.131Z,100574.22
2023-04-09T17:16:32.721Z,100568.78
2023-04-09T17:20:38.688Z,100577.72
2023-04-09T17:24:42.879Z,100570.66
2023-04-09T17:28:46.893Z,100583.63
2023-04-09T17:32:52.940Z,100590.19
2023-04-09T17:37:01.064Z,100593.19
2023-04-09T17:41:06.389Z,100595.41
2023-04-09T17:45:12.005Z,100595.06
2023-04-09T17:49:16.463Z,100599.06
2023-04-09T17:53:19.816Z,100598.63
2023-04-09T17:57:22.341Z,100604.44
2023-04-09T18:01:25.741Z,100601.34
2023-04-09T18:05:30.508Z,100609.75
2023-04-09T18:09:35.562Z,100610.28
2023-04-09T18:13:38.723Z,100616.03
2023-04-09T18:17:44.826Z,100626.06
2023-04-09T18:21:49.335Z,100628.97
2023-04-09T18:25:52.479Z,100624.03
2023-04-09T18:29:56.161Z,100634.06
2023-04-09T18:33:59.201Z,100636.00
2023-04-09T18:38:04.894Z,100649.25
2023-04-09T18:42:10.258Z,100640.75
2023-04-09T18:46:13.827Z,100643.50
2023-04-09T18:50:18.014Z,100652.38
2023-04-09T18:54:22.162Z,100647.16
2023-04-09T18:58:27.236Z,100639.44
2023-04-09T19:02:33.283Z,100642.22
2023-04-09T19:06:38.001Z,100642.44
2023-04-09T19:10:44.011Z,100648.69
2023-04-09T19:14:49.722Z,100649.66
2023-04-09T19:18:53.141Z,100644.63
2023-04-09T19:22:59.542Z,100640.19
2023-04-09T19:27:10.157Z,100642.84
2023-04-09T19:31:16.868Z,100642.13
2023-04-09T19:35:20.902Z,100641.34
2023-04-09T19:39:23.747Z,100643.22
2023-04-09T19:43:30.009Z,100650.41
2023-04-09T19:47:35.679Z,100647.91
2023-04-09T19:51:38.904Z,100650.59
2023-04-09T19:55:44.827Z,100641.09
2023-04-09T19:59:50.348Z,100644.69
2023-04-09T20:03:54.056Z,100646.50
2023-04-09T20:07:57.686Z,100640.50
2023-04-09T20:12:04.515Z,100650.28
2023-04-09T20:16:09.031Z,100650.34
2023-04-09T20:20:13.394Z,100643.09
2023-04-09T20:24:18.262Z,100653.56
2023-04-09T20:28:21.307Z,100654.47
2023-04-09T20:32:25.353Z,100653.78
2023-04-09T20:36:28.603Z,100660.06
2023-04-09T20:40:32.204Z,100652.28
2023-04-09T20:44:35.323Z,100654.16
2023-04-09T20:48:39.391Z,100654.31
2023-04-09T20:52:43.484Z,100655.16
2023-04-09T20:56:46.412Z,100649.16
2023-04-09T21:00:49.390Z,100651.34
2023-04-09T21:04:55.400Z,100655.09
2023-04-09T21:08:59.776Z,100652.06
2023-04-09T21:13:06.886Z,100644.81
2023-04-09T21:17:09.961Z,100644.69
2023-04-09T21:21:15.034Z,100649.81
2023-04-09T21:25:20.600Z,100646.91
2023-04-09T21:29:23.875Z,100649.88
2023-04-09T21:33:28.548Z,100649.31
2023-04-09T21:37:39.574Z,100646.13
2023-04-09T21:41:42.525Z,100654.34
2023-04-09T21:45:45.718Z,100654.41
2023-04-09T21:49:50.392Z,100649.13
2023-04-09T21:54:03.591Z,100646.47
2023-04-09T21:58:07.318Z,100653.34
2023-04-09T22:02:10.980Z,100650.81
2023-04-09T22:06:14.626Z,100649.13
2023-04-09T22:10:19.406Z,100651.00
2023-04-09T22:14:26.529Z,100651.28
2023-04-09T22:18:30.075Z,100650.66
2023-04-09T22:22:33.267Z,100648.44
2023-04-09T22:26:39.354Z,100644.28
2023-04-09T22:30:42.807Z,100650.81
2023-04-09T22:34:45.837Z,100642.66
2023-04-09T22:38:51.965Z,100638.84
2023-04-09T22:42:58.741Z,100636.72
2023-04-09T22:47:01.841Z,100627.09
2023-04-09T22:51:08.085Z,100641.88
2023-04-09T22:55:11.566Z,100638.06
2023-04-09T22:59:37.255Z,100640.41
2023-04-09T23:03:42.625Z,100647.19
2023-04-09T23:07:47.048Z,100649.34
2023-04-09T23:11:50.639Z,100647.03
2023-04-09T23:15:55.176Z,100648.28
2023-04-09T23:20:00.124Z,100646.84
2023-04-09T23:24:02.999Z,100639.53
2023-04-09T23:28:06.296Z,100641.50
2023-04-09T23:32:10.990Z,100644.44
2023-04-09T23:36:16.478Z,100634.19
2023-04-09T23:40:19.474Z,100635.16
2023-04-09T23:44:26.551Z,100634.72
2023-04-09T23:48:31.076Z,100641.09
2023-04-09T23:52:39.491Z,100627.41
2023-04-09T23:56:42.641Z,100631.75
